BTI9003 EYVI-EFHK
Flight info
| Callsign | BTI9003 |
|---|---|
| Flight time | N/A |
| Altitude | 34000 |
| Route | ATMEZ DCT TAGOL DCT LUNIT M983 DOLAT DCT ARSAM DCT INTOR |
| Aircraft | B733/M-SDE2E3FHIRW/S |
Departure
| Time | 2026-04-27 21:47 |
|---|---|
| Airport | Vilnius International Airport (EYVI) |
Arrival
| Time | N/A |
|---|---|
| Airport | Helsinki Vantaa Airport (EFHK) |
| Time | Latitude | Longitude | Altitude | Speed | Heading |
|---|---|---|---|---|---|
| 2026-04-27 21:33 | 54.64238 | 25.28203 | 633 ft | 0 kts | 0° |
| 2026-04-27 21:37 | 54.64237 | 25.28203 | 633 ft | 0 kts | 0° |
| 2026-04-27 21:39 | 54.64227 | 25.28203 | 633 ft | 2 kts | 358° |
| 2026-04-27 21:39 | 54.64208 | 25.28204 | 632 ft | 3 kts | 357° |
| 2026-04-27 21:39 | 54.64185 | 25.28206 | 632 ft | 3 kts | 357° |
| 2026-04-27 21:39 | 54.64160 | 25.28207 | 632 ft | 3 kts | 359° |
| 2026-04-27 21:40 | 54.64135 | 25.28207 | 631 ft | 3 kts | 1° |
| 2026-04-27 21:40 | 54.64126 | 25.28200 | 631 ft | 0 kts | 51° |
| 2026-04-27 21:42 | 54.64131 | 25.28206 | 631 ft | 2 kts | 25° |
| 2026-04-27 21:42 | 54.64142 | 25.28170 | 631 ft | 6 kts | 246° |
| 2026-04-27 21:42 | 54.64088 | 25.28175 | 630 ft | 10 kts | 162° |
| 2026-04-27 21:42 | 54.64006 | 25.28212 | 628 ft | 13 kts | 168° |
| 2026-04-27 21:43 | 54.63900 | 25.28248 | 625 ft | 17 kts | 167° |
| 2026-04-27 21:43 | 54.63773 | 25.28302 | 620 ft | 21 kts | 165° |
| 2026-04-27 21:43 | 54.63617 | 25.28372 | 615 ft | 24 kts | 173° |
| 2026-04-27 21:43 | 54.63443 | 25.28298 | 609 ft | 28 kts | 204° |
| 2026-04-27 21:44 | 54.63253 | 25.28160 | 603 ft | 31 kts | 200° |
| 2026-04-27 21:44 | 54.63084 | 25.28047 | 599 ft | 26 kts | 201° |
| 2026-04-27 21:44 | 54.62903 | 25.27922 | 597 ft | 28 kts | 202° |
| 2026-04-27 21:44 | 54.62720 | 25.27792 | 597 ft | 27 kts | 201° |
| 2026-04-27 21:45 | 54.62570 | 25.27692 | 598 ft | 22 kts | 200° |
| 2026-04-27 21:45 | 54.62465 | 25.27729 | 599 ft | 15 kts | 137° |
| 2026-04-27 21:45 | 54.62421 | 25.27869 | 599 ft | 12 kts | 76° |
| 2026-04-27 21:45 | 54.62505 | 25.27947 | 598 ft | 18 kts | 21° |
| 2026-04-27 21:46 | 54.62780 | 25.28135 | 597 ft | 72 kts | 21° |
| 2026-04-27 21:46 | 54.63421 | 25.28579 | 611 ft | 124 kts | 21° |
| 2026-04-27 21:46 | 54.64315 | 25.29219 | 783 ft | 145 kts | 20° |
| 2026-04-27 21:46 | 54.65255 | 25.29952 | 1128 ft | 155 kts | 22° |
| 2026-04-27 21:47 | 54.66238 | 25.30768 | 1611 ft | 158 kts | 20° |
| 2026-04-27 21:47 | 54.67231 | 25.31522 | 2088 ft | 160 kts | 14° |
| 2026-04-27 21:47 | 54.68351 | 25.32231 | 2337 ft | 181 kts | 15° |
| 2026-04-27 21:47 | 54.69553 | 25.33015 | 2784 ft | 191 kts | 15° |
| 2026-04-27 21:48 | 54.70842 | 25.33862 | 3239 ft | 205 kts | 15° |
| 2026-04-27 21:48 | 54.72203 | 25.34769 | 3977 ft | 211 kts | 16° |
| 2026-04-27 21:48 | 54.73542 | 25.35674 | 4849 ft | 212 kts | 16° |
| 2026-04-27 21:48 | 54.74930 | 25.36617 | 5619 ft | 218 kts | 16° |
| 2026-04-27 21:49 | 54.76407 | 25.37623 | 6055 ft | 238 kts | 17° |
| 2026-04-27 21:49 | 54.77965 | 25.38696 | 6738 ft | 248 kts | 17° |
| 2026-04-27 21:49 | 54.79582 | 25.39813 | 7569 ft | 253 kts | 16° |
| 2026-04-27 21:49 | 54.81267 | 25.40248 | 8369 ft | 250 kts | 347° |
| 2026-04-27 21:50 | 54.82984 | 25.39560 | 8941 ft | 256 kts | 344° |
| 2026-04-27 21:50 | 54.84715 | 25.38845 | 9846 ft | 257 kts | 345° |
| 2026-04-27 21:50 | 54.86485 | 25.38328 | 10480 ft | 270 kts | 349° |
| 2026-04-27 21:50 | 54.88434 | 25.37837 | 10816 ft | 292 kts | 349° |
| 2026-04-27 21:51 | 54.90444 | 25.37323 | 11600 ft | 298 kts | 349° |
| 2026-04-27 21:51 | 54.92495 | 25.36793 | 12495 ft | 301 kts | 348° |
| 2026-04-27 21:51 | 54.94562 | 25.36253 | 13435 ft | 302 kts | 348° |
| 2026-04-27 21:51 | 54.96655 | 25.35703 | 14325 ft | 305 kts | 348° |
| 2026-04-27 21:52 | 54.98737 | 25.35154 | 15215 ft | 308 kts | 348° |
| 2026-04-27 21:52 | 55.00847 | 25.34597 | 16172 ft | 308 kts | 347° |
| 2026-04-27 21:52 | 55.02977 | 25.34032 | 17067 ft | 309 kts | 347° |
| 2026-04-27 21:52 | 55.05088 | 25.33471 | 17900 ft | 311 kts | 347° |
| 2026-04-27 21:53 | 55.07225 | 25.32903 | 18720 ft | 312 kts | 346° |
| 2026-04-27 21:53 | 55.09382 | 25.32329 | 19538 ft | 313 kts | 346° |
| 2026-04-27 21:53 | 55.11525 | 25.31759 | 20260 ft | 316 kts | 346° |
| 2026-04-27 21:53 | 55.13701 | 25.31183 | 21028 ft | 317 kts | 345° |
| 2026-04-27 21:54 | 55.15889 | 25.30600 | 21748 ft | 319 kts | 345° |
| 2026-04-27 21:54 | 55.18089 | 25.30015 | 22534 ft | 318 kts | 345° |
| 2026-04-27 21:54 | 55.20255 | 25.29435 | 23228 ft | 319 kts | 345° |
| 2026-04-27 21:54 | 55.22444 | 25.28850 | 23866 ft | 320 kts | 344° |
| 2026-04-27 21:55 | 55.24663 | 25.28254 | 24524 ft | 321 kts | 343° |
| 2026-04-27 21:55 | 55.26875 | 25.27658 | 25032 ft | 326 kts | 344° |
| 2026-04-27 21:55 | 55.29144 | 25.27046 | 25523 ft | 332 kts | 344° |
| 2026-04-27 21:55 | 55.31459 | 25.26422 | 26024 ft | 337 kts | 345° |
| 2026-04-27 21:56 | 55.33789 | 25.25791 | 26580 ft | 339 kts | 344° |
| 2026-04-27 21:56 | 55.38507 | 25.24495 | 27467 ft | 350 kts | 345° |
| 2026-04-27 21:56 | 55.40926 | 25.23838 | 27959 ft | 353 kts | 345° |
| 2026-04-27 21:57 | 55.43372 | 25.23172 | 28413 ft | 357 kts | 345° |
| 2026-04-27 21:57 | 55.45866 | 25.22497 | 28931 ft | 359 kts | 345° |
| 2026-04-27 21:57 | 55.48363 | 25.22072 | 29410 ft | 365 kts | 352° |
| 2026-04-27 21:57 | 55.50889 | 25.22064 | 29842 ft | 367 kts | 353° |
| 2026-04-27 21:58 | 55.53451 | 25.22073 | 30266 ft | 367 kts | 353° |
| 2026-04-27 21:58 | 55.56014 | 25.22071 | 30703 ft | 367 kts | 353° |
| 2026-04-27 21:58 | 55.58599 | 25.22060 | 31073 ft | 368 kts | 353° |
| 2026-04-27 21:58 | 55.61163 | 25.22045 | 31382 ft | 369 kts | 353° |
| 2026-04-27 21:59 | 55.63735 | 25.22028 | 31695 ft | 372 kts | 354° |
| 2026-04-27 21:59 | 55.66317 | 25.22012 | 32043 ft | 373 kts | 354° |
| 2026-04-27 21:59 | 55.68932 | 25.21995 | 32419 ft | 373 kts | 355° |
| 2026-04-27 21:59 | 55.71503 | 25.21979 | 32749 ft | 374 kts | 355° |
| 2026-04-27 22:00 | 55.74110 | 25.21961 | 33028 ft | 376 kts | 355° |
| 2026-04-27 22:00 | 55.76748 | 25.21943 | 33348 ft | 376 kts | 355° |
| 2026-04-27 22:00 | 55.79372 | 25.21926 | 33693 ft | 376 kts | 356° |
| 2026-04-27 22:00 | 55.81657 | 25.21910 | 33898 ft | 379 kts | 355° |
| 2026-04-27 22:01 | 55.84285 | 25.21892 | 34015 ft | 379 kts | 356° |